createdAt,value
2018-07-25T00:01:12.260Z,15.83
2018-07-25T00:05:16.100Z,15.13
2018-07-25T00:09:20.008Z,15.47
2018-07-25T00:13:25.307Z,13.33
2018-07-25T00:17:29.179Z,14.30
2018-07-25T00:21:33.304Z,14.70
2018-07-25T00:25:37.375Z,15.57
2018-07-25T00:29:41.324Z,16.50
2018-07-25T00:33:45.207Z,15.40
2018-07-25T00:37:49.055Z,18.40
2018-07-25T00:41:52.955Z,18.17
2018-07-25T00:45:56.903Z,18.20
2018-07-25T00:50:00.815Z,16.30
2018-07-25T00:54:04.652Z,15.80
2018-07-25T00:58:08.679Z,17.17
2018-07-25T01:02:12.554Z,17.27
2018-07-25T01:06:16.543Z,16.50
2018-07-25T01:10:20.391Z,16.07
2018-07-25T01:14:24.279Z,16.43
2018-07-25T01:18:28.124Z,16.00
2018-07-25T01:22:32.104Z,17.80
2018-07-25T01:26:35.951Z,15.87
2018-07-25T01:30:39.823Z,16.20
2018-07-25T01:34:43.663Z,13.50
2018-07-25T01:38:47.536Z,13.40
2018-07-25T01:42:51.389Z,15.67
2018-07-25T01:46:55.271Z,16.17
2018-07-25T01:50:59.150Z,20.17
2018-07-25T01:55:03.015Z,18.80
2018-07-25T01:59:07.097Z,21.60
2018-07-25T02:03:10.973Z,22.57
2018-07-25T02:07:14.827Z,23.50
2018-07-25T02:11:18.807Z,25.27
2018-07-25T02:15:22.643Z,22.53
2018-07-25T02:19:26.552Z,23.07
2018-07-25T02:23:30.371Z,22.10
2018-07-25T02:27:34.316Z,25.80
2018-07-25T02:31:38.257Z,23.40
2018-07-25T02:35:42.160Z,22.93
2018-07-25T02:39:45.999Z,20.80
2018-07-25T02:43:50.153Z,25.10
2018-07-25T02:47:53.747Z,23.73
2018-07-25T02:51:57.507Z,22.67
2018-07-25T02:56:01.368Z,22.67
2018-07-25T03:00:05.752Z,27.83
2018-07-25T03:04:09.595Z,24.90
2018-07-25T03:08:13.500Z,26.53
2018-07-25T03:12:17.339Z,25.10
2018-07-25T03:16:21.324Z,26.80
2018-07-25T03:20:25.168Z,27.97
2018-07-25T03:24:28.919Z,27.20
2018-07-25T03:28:32.695Z,29.80
2018-07-25T03:32:36.674Z,30.73
2018-07-25T03:36:40.572Z,28.00
2018-07-25T03:40:44.820Z,29.50
2018-07-25T03:44:48.657Z,28.80
2018-07-25T03:48:52.651Z,33.80
2018-07-25T03:52:56.597Z,36.20
2018-07-25T03:57:00.551Z,37.60
2018-07-25T04:01:04.615Z,40.03
2018-07-25T04:05:08.600Z,38.83
2018-07-25T04:09:12.451Z,38.50
2018-07-25T04:13:17.112Z,41.83
2018-07-25T04:21:31.171Z,40.50
2018-07-25T04:25:35.032Z,42.57
2018-07-25T04:29:38.925Z,42.00
2018-07-25T04:33:42.783Z,41.13
2018-07-25T04:37:46.667Z,39.97
2018-07-25T04:41:50.511Z,43.30
2018-07-25T04:45:54.406Z,42.50
2018-07-25T04:49:58.243Z,42.67
2018-07-25T04:54:02.127Z,41.77
2018-07-25T04:58:05.979Z,44.43
2018-07-25T05:02:10.311Z,47.13
2018-07-25T05:06:14.164Z,41.97
2018-07-25T05:10:18.049Z,43.17
2018-07-25T05:14:21.895Z,47.10
2018-07-25T05:18:25.779Z,39.37
2018-07-25T05:22:29.671Z,39.23
2018-07-25T05:26:33.580Z,41.40
2018-07-25T05:30:37.459Z,39.73
2018-07-25T05:34:41.347Z,38.37
2018-07-25T05:38:45.198Z,42.10
2018-07-25T05:42:49.088Z,39.33
2018-07-25T05:46:52.940Z,40.60
2018-07-25T05:50:57.056Z,35.10
2018-07-25T05:55:01.018Z,36.00
2018-07-25T05:59:04.892Z,38.27
2018-07-25T06:03:09.039Z,38.33
2018-07-25T06:07:12.887Z,36.30
2018-07-25T06:11:16.727Z,33.50
2018-07-25T06:15:20.712Z,31.57
2018-07-25T06:19:24.559Z,33.97
2018-07-25T06:23:28.471Z,34.47
2018-07-25T06:27:32.315Z,32.73
2018-07-25T06:31:36.228Z,31.30
2018-07-25T06:35:40.064Z,31.33
2018-07-25T06:39:44.029Z,31.50
2018-07-25T06:43:47.724Z,31.33
2018-07-25T06:47:51.431Z,31.93
2018-07-25T06:51:55.281Z,26.93
2018-07-25T06:55:59.153Z,23.37
2018-07-25T07:00:02.807Z,21.90
2018-07-25T07:04:06.749Z,19.07
2018-07-25T07:08:10.596Z,18.33
2018-07-25T07:12:14.300Z,15.03
2018-07-25T07:16:17.996Z,14.40
2018-07-25T07:20:21.739Z,13.00
2018-07-25T07:24:25.456Z,11.83
2018-07-25T07:28:29.356Z,11.57
2018-07-25T07:32:33.199Z,10.10
2018-07-25T07:36:37.007Z,10.10
2018-07-25T07:40:40.730Z,9.87
2018-07-25T07:44:44.640Z,8.67
2018-07-25T07:48:48.471Z,7.57
2018-07-25T07:52:52.361Z,9.10
2018-07-25T07:56:56.219Z,7.73
2018-07-25T08:01:00.156Z,7.03
2018-07-25T08:05:04.402Z,7.07
2018-07-25T08:09:10.692Z,6.63
2018-07-25T08:13:14.536Z,6.80
2018-07-25T08:17:18.419Z,6.03
2018-07-25T08:21:22.260Z,7.47
2018-07-25T08:25:26.157Z,8.30
2018-07-25T08:29:29.987Z,7.60
2018-07-25T08:33:33.911Z,6.80
2018-07-25T08:37:37.402Z,7.90
2018-07-25T08:41:41.284Z,7.70
2018-07-25T08:45:45.104Z,5.17
2018-07-25T08:49:48.986Z,5.90
2018-07-25T08:53:52.639Z,6.33
2018-07-25T08:57:56.243Z,4.90
2018-07-25T09:01:59.950Z,5.30
2018-07-25T09:06:04.088Z,6.30
2018-07-25T09:10:07.931Z,6.07
2018-07-25T09:14:11.611Z,5.00
2018-07-25T09:18:15.131Z,6.47
2018-07-25T09:22:18.904Z,6.00
2018-07-25T09:26:22.535Z,6.27
2018-07-25T09:30:26.095Z,5.93
2018-07-25T09:34:29.847Z,6.20
2018-07-25T09:38:33.595Z,5.60
2018-07-25T09:42:37.319Z,6.30
2018-07-25T09:46:41.090Z,5.70
2018-07-25T09:50:44.500Z,5.60
2018-07-25T09:54:48.276Z,6.00
2018-07-25T09:58:52.123Z,5.23
2018-07-25T10:02:55.768Z,5.97
2018-07-25T10:06:59.709Z,6.23
2018-07-25T10:11:03.401Z,5.50
2018-07-25T10:15:06.983Z,6.10
2018-07-25T10:19:10.667Z,5.60
2018-07-25T10:23:14.299Z,6.30
2018-07-25T10:27:18.050Z,7.00
2018-07-25T10:31:21.695Z,6.30
2018-07-25T10:35:25.588Z,7.03
2018-07-25T10:39:29.224Z,5.77
2018-07-25T10:43:32.987Z,5.90
2018-07-25T10:47:36.839Z,6.53
2018-07-25T10:51:40.615Z,6.83
2018-07-25T10:55:44.344Z,6.70
2018-07-25T10:59:48.013Z,5.73
2018-07-25T11:03:51.592Z,5.40
2018-07-25T11:07:55.488Z,6.60
2018-07-25T11:11:59.319Z,6.10
2018-07-25T11:16:03.208Z,6.90
2018-07-25T11:20:06.991Z,5.70
2018-07-25T11:24:10.761Z,5.97
2018-07-25T11:28:14.603Z,6.30
2018-07-25T11:32:18.496Z,5.80
2018-07-25T11:36:22.131Z,5.77
2018-07-25T11:40:25.684Z,5.63
2018-07-25T11:44:29.191Z,5.23
2018-07-25T11:48:33.033Z,4.90
2018-07-25T11:52:36.656Z,6.10
2018-07-25T11:56:40.213Z,5.30
2018-07-25T12:00:43.927Z,5.00
2018-07-25T12:04:47.599Z,4.63
2018-07-25T12:08:51.271Z,5.73
2018-07-25T12:12:54.820Z,5.03
2018-07-25T12:16:58.294Z,5.53
2018-07-25T12:21:02.068Z,5.20
2018-07-25T12:25:06.010Z,5.37
2018-07-25T12:29:09.539Z,5.87
2018-07-25T12:33:13.264Z,5.47
2018-07-25T12:37:17.160Z,5.13
2018-07-25T12:41:20.996Z,4.70
2018-07-25T12:45:24.660Z,5.87
2018-07-25T12:49:28.387Z,4.90
2018-07-25T12:53:32.303Z,6.37
2018-07-25T12:57:36.248Z,5.27
2018-07-25T13:01:39.896Z,5.13
2018-07-25T13:05:43.402Z,5.77
2018-07-25T13:09:47.059Z,5.20
2018-07-25T13:13:50.779Z,4.30
2018-07-25T13:17:54.744Z,5.23
2018-07-25T13:21:58.375Z,5.67
2018-07-25T13:26:01.987Z,4.40
2018-07-25T13:30:06.052Z,4.97
2018-07-25T13:34:09.924Z,4.60
2018-07-25T13:38:13.553Z,4.57
2018-07-25T13:42:17.099Z,4.87
2018-07-25T13:46:21.628Z,4.37
2018-07-25T13:50:25.340Z,4.87
2018-07-25T13:54:28.971Z,4.23
2018-07-25T13:58:32.713Z,3.93
2018-07-25T14:02:36.561Z,4.33
2018-07-25T14:06:40.223Z,4.67
2018-07-25T14:10:44.100Z,4.80
2018-07-25T14:14:47.853Z,4.30
2018-07-25T14:18:51.764Z,4.97
2018-07-25T14:22:55.432Z,4.20
2018-07-25T14:26:58.988Z,4.57
2018-07-25T14:31:02.883Z,4.10
2018-07-25T14:35:06.506Z,4.63
2018-07-25T14:39:11.387Z,4.17
2018-07-25T14:43:15.037Z,4.53
2018-07-25T14:47:18.889Z,4.07
2018-07-25T14:51:22.564Z,4.10
2018-07-25T14:55:26.293Z,4.47
2018-07-25T14:59:30.130Z,4.47
2018-07-25T15:03:34.028Z,4.47
2018-07-25T15:07:37.667Z,4.30
2018-07-25T15:11:41.391Z,3.93
2018-07-25T15:15:45.121Z,4.00
2018-07-25T15:19:48.995Z,3.73
2018-07-25T15:23:54.855Z,4.13
2018-07-25T15:27:58.732Z,3.97
2018-07-25T15:32:02.571Z,4.20
2018-07-25T15:36:06.253Z,3.73
2018-07-25T15:40:09.957Z,4.00
2018-07-25T15:44:14.003Z,4.50
2018-07-25T15:48:17.862Z,3.30
2018-07-25T15:52:21.515Z,3.90
2018-07-25T15:56:25.017Z,4.20
2018-07-25T16:00:28.916Z,3.87
2018-07-25T16:04:32.548Z,3.13
2018-07-25T16:08:36.279Z,3.63
2018-07-25T16:12:40.027Z,3.63
2018-07-25T16:16:43.583Z,4.30
2018-07-25T16:20:47.727Z,4.00
2018-07-25T16:24:51.640Z,3.77
2018-07-25T16:28:55.483Z,4.13
2018-07-25T16:32:59.159Z,4.33
2018-07-25T16:37:02.879Z,3.67
2018-07-25T16:41:06.844Z,3.67
2018-07-25T16:45:10.455Z,4.10
2018-07-25T16:49:14.307Z,4.17
2018-07-25T16:53:17.932Z,4.07
2018-07-25T16:57:21.487Z,3.97
2018-07-25T17:01:25.254Z,4.00
2018-07-25T17:05:29.231Z,4.97
2018-07-25T17:09:32.846Z,3.40
2018-07-25T17:13:36.454Z,4.13
2018-07-25T17:17:40.343Z,3.87
2018-07-25T17:21:44.224Z,4.10
2018-07-25T17:25:47.863Z,4.00
2018-07-25T17:29:51.387Z,3.33
2018-07-25T17:33:54.911Z,4.30
2018-07-25T17:37:58.748Z,4.60
2018-07-25T17:42:02.924Z,3.40
2018-07-25T17:46:06.971Z,3.40
2018-07-25T17:50:11.084Z,3.80
2018-07-25T17:54:14.769Z,3.70
2018-07-25T17:58:18.772Z,3.10
2018-07-25T18:02:22.611Z,3.33
2018-07-25T18:06:26.780Z,3.20
2018-07-25T18:10:30.804Z,2.87
2018-07-25T18:14:35.035Z,3.40
2018-07-25T18:18:38.883Z,3.23
2018-07-25T18:22:42.787Z,4.40
2018-07-25T18:26:46.623Z,2.90
2018-07-25T18:30:50.276Z,4.40
2018-07-25T18:34:53.992Z,3.03
2018-07-25T18:38:57.908Z,3.43
2018-07-25T18:43:01.762Z,3.70
2018-07-25T18:47:05.479Z,3.80
2018-07-25T18:51:08.971Z,4.00
2018-07-25T18:55:12.747Z,3.30
2018-07-25T18:59:16.373Z,3.37
2018-07-25T19:03:20.131Z,4.10
2018-07-25T19:07:23.835Z,3.60
2018-07-25T19:11:27.511Z,3.73
2018-07-25T19:15:32.403Z,4.00
2018-07-25T19:19:36.085Z,4.10
2018-07-25T19:23:39.820Z,3.20
2018-07-25T19:27:43.683Z,4.03
2018-07-25T19:31:47.315Z,3.90
2018-07-25T19:35:51.072Z,4.07
2018-07-25T19:39:54.912Z,4.07
2018-07-25T19:43:58.571Z,4.17
2018-07-25T19:48:02.287Z,4.83
2018-07-25T19:52:06.192Z,4.00
2018-07-25T19:56:10.044Z,4.27
2018-07-25T20:00:16.551Z,5.03
2018-07-25T20:04:17.835Z,4.27
2018-07-25T20:08:21.796Z,4.60
2018-07-25T20:12:25.640Z,5.27
2018-07-25T20:16:29.706Z,4.97
2018-07-25T20:20:33.329Z,4.90
2018-07-25T20:24:37.276Z,5.77
2018-07-25T20:28:40.904Z,5.50
2018-07-25T20:32:44.836Z,5.10
2018-07-25T20:36:48.664Z,5.50
2018-07-25T20:40:52.656Z,5.57
2018-07-25T20:44:56.288Z,5.90
2018-07-25T20:49:00.128Z,6.13
2018-07-25T20:53:03.997Z,7.53
2018-07-25T20:57:08.448Z,7.77
2018-07-25T21:01:12.284Z,6.97
2018-07-25T21:05:16.188Z,8.13
2018-07-25T21:09:20.043Z,9.83
2018-07-25T21:13:23.884Z,8.17
2018-07-25T21:17:27.830Z,10.00
2018-07-25T21:21:31.716Z,10.13
2018-07-25T21:25:35.567Z,10.50
2018-07-25T21:29:39.531Z,11.00
2018-07-25T21:33:43.374Z,10.17
2018-07-25T21:37:47.252Z,10.73
2018-07-25T21:41:51.113Z,12.37
2018-07-25T21:45:55.004Z,10.90
2018-07-25T21:49:58.851Z,11.03
2018-07-25T21:54:02.763Z,13.33
2018-07-25T21:58:06.623Z,11.50
2018-07-25T22:02:10.636Z,11.70
2018-07-25T22:06:15.231Z,12.40
2018-07-25T22:10:19.116Z,13.27
2018-07-25T22:14:22.973Z,13.00
2018-07-25T22:18:26.743Z,11.43
2018-07-25T22:22:30.470Z,12.93
2018-07-25T22:26:34.388Z,13.17
2018-07-25T22:30:38.237Z,14.00
2018-07-25T22:34:42.134Z,12.30
2018-07-25T22:38:45.997Z,13.77
2018-07-25T22:42:49.888Z,13.63
2018-07-25T22:46:53.724Z,15.70
2018-07-25T22:50:57.655Z,13.63
2018-07-25T22:55:01.504Z,14.10
2018-07-25T22:59:05.815Z,15.60
2018-07-25T23:03:09.676Z,17.50
2018-07-25T23:07:13.603Z,14.90
2018-07-25T23:11:17.451Z,15.57
2018-07-25T23:15:22.247Z,16.53
2018-07-25T23:19:26.172Z,16.80
2018-07-25T23:23:30.059Z,16.37
2018-07-25T23:27:33.911Z,15.60
2018-07-25T23:31:37.828Z,18.20
2018-07-25T23:35:41.668Z,18.77
2018-07-25T23:39:45.547Z,17.70
2018-07-25T23:43:49.391Z,17.40
2018-07-25T23:47:53.265Z,16.90
2018-07-25T23:51:57.119Z,17.37
2018-07-25T23:56:01.015Z,16.90
